Blagoevgrad, Bulgaria
Current Conditions -  °F | °C
As of 1:30 AM on Friday 19 Dec 2014 (Local Time) from LBSF Reporting Station
Smoke Smoke  
Wind Chill: 46°   Ceiling: 4500
Heat Index: 46°   Visibility: 6mi
Dew Point: 41°   Wind: 2mph
Humidity: 81%   Direction: NA
Pressure: 30.15"   Gusts: NA
Location:  42.03°N, 23.09°E
Report Text: LBSF 182230Z VRB02KT 9000 4100E FU OVC045 08/05 Q1021 NOSIG
Loading
Personal Weather Stations






























Interactive Weather Map New forecast layout! Learn more

10-Day Weather Forecast

Advertisements
Track Severe Weather on mobile